sensor_id;sensor_type;location;lat;lon;timestamp;P1;durP1;ratioP1;P2;durP2;ratioP2
64571;SDS011;51155;51.984;21.208;2023-01-29T00:00:08;4.30;;;2.30;;
64571;SDS011;51155;51.984;21.208;2023-01-29T00:02:42;4.80;;;2.20;;
64571;SDS011;51155;51.984;21.208;2023-01-29T00:05:17;3.90;;;2.30;;
64571;SDS011;51155;51.984;21.208;2023-01-29T00:07:58;4.70;;;3.20;;
64571;SDS011;51155;51.984;21.208;2023-01-29T00:10:30;5.10;;;2.50;;
64571;SDS011;51155;51.984;21.208;2023-01-29T00:13:02;4.60;;;2.60;;
64571;SDS011;51155;51.984;21.208;2023-01-29T00:15:36;4.80;;;2.50;;
64571;SDS011;51155;51.984;21.208;2023-01-29T00:18:08;5.50;;;3.10;;
64571;SDS011;51155;51.984;21.208;2023-01-29T00:20:42;3.80;;;2.00;;
64571;SDS011;51155;51.984;21.208;2023-01-29T00:23:14;4.20;;;2.50;;
64571;SDS011;51155;51.984;21.208;2023-01-29T00:25:46;4.90;;;2.80;;
64571;SDS011;51155;51.984;21.208;2023-01-29T00:28:18;5.80;;;3.20;;
64571;SDS011;51155;51.984;21.208;2023-01-29T00:30:50;3.50;;;2.30;;
64571;SDS011;51155;51.984;21.208;2023-01-29T00:33:23;5.30;;;2.50;;
64571;SDS011;51155;51.984;21.208;2023-01-29T00:38:27;3.30;;;2.30;;
64571;SDS011;51155;51.984;21.208;2023-01-29T00:41:11;5.00;;;2.40;;
64571;SDS011;51155;51.984;21.208;2023-01-29T00:44:02;4.00;;;2.70;;
64571;SDS011;51155;51.984;21.208;2023-01-29T00:46:53;4.80;;;2.80;;
64571;SDS011;51155;51.984;21.208;2023-01-29T00:49:26;4.60;;;2.50;;
64571;SDS011;51155;51.984;21.208;2023-01-29T00:51:59;4.00;;;2.50;;
64571;SDS011;51155;51.984;21.208;2023-01-29T00:55:04;4.30;;;2.40;;
64571;SDS011;51155;51.984;21.208;2023-01-29T00:57:36;3.80;;;2.20;;
64571;SDS011;51155;51.984;21.208;2023-01-29T01:00:12;5.70;;;2.60;;
64571;SDS011;51155;51.984;21.208;2023-01-29T01:02:46;4.10;;;2.50;;
64571;SDS011;51155;51.984;21.208;2023-01-29T01:05:36;4.50;;;2.80;;
64571;SDS011;51155;51.984;21.208;2023-01-29T01:08:10;4.10;;;2.60;;
64571;SDS011;51155;51.984;21.208;2023-01-29T01:11:03;4.30;;;2.60;;
64571;SDS011;51155;51.984;21.208;2023-01-29T01:13:35;4.70;;;2.70;;
64571;SDS011;51155;51.984;21.208;2023-01-29T01:16:16;4.00;;;2.40;;
64571;SDS011;51155;51.984;21.208;2023-01-29T01:18:49;5.20;;;2.50;;
64571;SDS011;51155;51.984;21.208;2023-01-29T01:21:21;3.60;;;2.30;;
64571;SDS011;51155;51.984;21.208;2023-01-29T01:23:53;4.20;;;2.50;;
64571;SDS011;51155;51.984;21.208;2023-01-29T01:26:25;3.40;;;2.30;;
64571;SDS011;51155;51.984;21.208;2023-01-29T01:28:58;3.30;;;2.30;;
64571;SDS011;51155;51.984;21.208;2023-01-29T01:31:30;3.80;;;2.30;;
64571;SDS011;51155;51.984;21.208;2023-01-29T01:34:02;4.40;;;2.30;;
64571;SDS011;51155;51.984;21.208;2023-01-29T01:36:34;6.30;;;2.40;;
64571;SDS011;51155;51.984;21.208;2023-01-29T01:39:06;4.60;;;2.60;;
64571;SDS011;51155;51.984;21.208;2023-01-29T01:41:38;5.10;;;2.40;;
64571;SDS011;51155;51.984;21.208;2023-01-29T01:44:50;4.20;;;2.60;;
64571;SDS011;51155;51.984;21.208;2023-01-29T01:47:32;4.30;;;2.40;;
64571;SDS011;51155;51.984;21.208;2023-01-29T01:50:12;4.30;;;2.50;;
64571;SDS011;51155;51.984;21.208;2023-01-29T01:52:49;4.10;;;2.30;;
64571;SDS011;51155;51.984;21.208;2023-01-29T01:55:25;4.20;;;2.40;;
64571;SDS011;51155;51.984;21.208;2023-01-29T01:58:02;3.50;;;2.20;;
64571;SDS011;51155;51.984;21.208;2023-01-29T02:00:37;4.40;;;2.20;;
64571;SDS011;51155;51.984;21.208;2023-01-29T02:03:09;4.40;;;2.50;;
64571;SDS011;51155;51.984;21.208;2023-01-29T02:06:00;4.30;;;2.10;;
64571;SDS011;51155;51.984;21.208;2023-01-29T02:08:59;4.90;;;2.30;;
64571;SDS011;51155;51.984;21.208;2023-01-29T02:11:51;4.00;;;2.30;;
64571;SDS011;51155;51.984;21.208;2023-01-29T02:14:23;3.50;;;2.00;;
64571;SDS011;51155;51.984;21.208;2023-01-29T02:16:56;3.70;;;2.00;;
64571;SDS011;51155;51.984;21.208;2023-01-29T02:34:17;3.90;;;2.30;;
64571;SDS011;51155;51.984;21.208;2023-01-29T02:37:08;4.00;;;1.80;;
64571;SDS011;51155;51.984;21.208;2023-01-29T02:40:04;3.50;;;2.00;;
64571;SDS011;51155;51.984;21.208;2023-01-29T02:42:52;3.30;;;1.90;;
64571;SDS011;51155;51.984;21.208;2023-01-29T02:45:39;4.70;;;2.20;;
64571;SDS011;51155;51.984;21.208;2023-01-29T02:48:18;3.30;;;1.90;;
64571;SDS011;51155;51.984;21.208;2023-01-29T02:50:55;3.40;;;1.90;;
64571;SDS011;51155;51.984;21.208;2023-01-29T02:53:40;3.20;;;2.20;;
64571;SDS011;51155;51.984;21.208;2023-01-29T02:56:20;3.20;;;2.00;;
64571;SDS011;51155;51.984;21.208;2023-01-29T02:59:00;5.30;;;2.10;;
64571;SDS011;51155;51.984;21.208;2023-01-29T03:01:40;4.50;;;2.00;;
64571;SDS011;51155;51.984;21.208;2023-01-29T03:04:18;4.20;;;2.20;;
64571;SDS011;51155;51.984;21.208;2023-01-29T03:06:56;3.30;;;1.80;;
64571;SDS011;51155;51.984;21.208;2023-01-29T03:09:33;4.00;;;1.90;;
64571;SDS011;51155;51.984;21.208;2023-01-29T03:12:17;3.20;;;1.90;;
64571;SDS011;51155;51.984;21.208;2023-01-29T03:15:12;3.40;;;2.10;;
64571;SDS011;51155;51.984;21.208;2023-01-29T03:18:01;4.40;;;2.10;;
64571;SDS011;51155;51.984;21.208;2023-01-29T03:20:49;2.70;;;1.70;;
64571;SDS011;51155;51.984;21.208;2023-01-29T03:23:28;4.10;;;2.20;;
64571;SDS011;51155;51.984;21.208;2023-01-29T03:26:21;3.70;;;1.90;;
64571;SDS011;51155;51.984;21.208;2023-01-29T03:29:12;3.90;;;1.90;;
64571;SDS011;51155;51.984;21.208;2023-01-29T03:32:04;3.30;;;1.90;;
64571;SDS011;51155;51.984;21.208;2023-01-29T03:34:49;2.90;;;1.80;;
64571;SDS011;51155;51.984;21.208;2023-01-29T03:37:30;2.70;;;1.50;;
64571;SDS011;51155;51.984;21.208;2023-01-29T03:45:59;3.20;;;1.80;;
64571;SDS011;51155;51.984;21.208;2023-01-29T03:48:39;3.70;;;1.70;;
64571;SDS011;51155;51.984;21.208;2023-01-29T03:51:29;3.90;;;1.90;;
64571;SDS011;51155;51.984;21.208;2023-01-29T03:57:20;3.50;;;1.60;;
64571;SDS011;51155;51.984;21.208;2023-01-29T04:03:11;2.50;;;1.50;;
64571;SDS011;51155;51.984;21.208;2023-01-29T04:06:08;3.90;;;2.00;;
64571;SDS011;51155;51.984;21.208;2023-01-29T04:08:52;4.10;;;2.10;;
64571;SDS011;51155;51.984;21.208;2023-01-29T04:11:28;3.10;;;1.80;;
64571;SDS011;51155;51.984;21.208;2023-01-29T04:14:02;3.60;;;2.10;;
64571;SDS011;51155;51.984;21.208;2023-01-29T04:16:41;3.40;;;1.90;;
64571;SDS011;51155;51.984;21.208;2023-01-29T04:19:32;3.50;;;1.70;;
64571;SDS011;51155;51.984;21.208;2023-01-29T04:22:22;3.60;;;2.10;;
64571;SDS011;51155;51.984;21.208;2023-01-29T04:24:56;4.00;;;2.00;;
64571;SDS011;51155;51.984;21.208;2023-01-29T04:33:27;3.60;;;1.90;;
64571;SDS011;51155;51.984;21.208;2023-01-29T04:39:35;2.70;;;1.50;;
64571;SDS011;51155;51.984;21.208;2023-01-29T04:42:30;3.20;;;1.90;;
64571;SDS011;51155;51.984;21.208;2023-01-29T04:45:34;3.40;;;1.90;;
64571;SDS011;51155;51.984;21.208;2023-01-29T04:50:43;3.50;;;1.80;;
64571;SDS011;51155;51.984;21.208;2023-01-29T04:56:10;4.00;;;1.80;;
64571;SDS011;51155;51.984;21.208;2023-01-29T04:58:50;3.60;;;2.20;;
64571;SDS011;51155;51.984;21.208;2023-01-29T05:01:25;3.80;;;1.80;;
64571;SDS011;51155;51.984;21.208;2023-01-29T05:04:03;4.30;;;2.00;;
64571;SDS011;51155;51.984;21.208;2023-01-29T05:06:36;4.30;;;1.90;;
64571;SDS011;51155;51.984;21.208;2023-01-29T05:09:09;3.00;;;1.70;;
64571;SDS011;51155;51.984;21.208;2023-01-29T05:11:44;3.60;;;1.80;;
64571;SDS011;51155;51.984;21.208;2023-01-29T05:14:17;3.70;;;1.60;;
64571;SDS011;51155;51.984;21.208;2023-01-29T05:16:51;3.20;;;1.60;;
64571;SDS011;51155;51.984;21.208;2023-01-29T05:19:24;3.20;;;1.60;;
64571;SDS011;51155;51.984;21.208;2023-01-29T05:21:57;3.20;;;1.60;;
64571;SDS011;51155;51.984;21.208;2023-01-29T05:24:29;3.20;;;1.60;;
64571;SDS011;51155;51.984;21.208;2023-01-29T05:27:01;2.90;;;1.60;;
64571;SDS011;51155;51.984;21.208;2023-01-29T05:29:52;3.10;;;1.60;;
64571;SDS011;51155;51.984;21.208;2023-01-29T05:32:26;2.40;;;1.40;;
64571;SDS011;51155;51.984;21.208;2023-01-29T05:34:58;2.30;;;1.30;;
64571;SDS011;51155;51.984;21.208;2023-01-29T05:37:30;2.60;;;1.40;;
64571;SDS011;51155;51.984;21.208;2023-01-29T05:40:02;2.60;;;1.30;;
64571;SDS011;51155;51.984;21.208;2023-01-29T05:42:34;2.20;;;1.50;;
64571;SDS011;51155;51.984;21.208;2023-01-29T05:45:07;3.10;;;1.60;;
64571;SDS011;51155;51.984;21.208;2023-01-29T05:47:39;3.40;;;1.80;;
64571;SDS011;51155;51.984;21.208;2023-01-29T05:50:13;3.00;;;1.80;;
64571;SDS011;51155;51.984;21.208;2023-01-29T05:52:45;3.00;;;1.60;;
64571;SDS011;51155;51.984;21.208;2023-01-29T05:55:17;3.40;;;1.90;;
64571;SDS011;51155;51.984;21.208;2023-01-29T05:57:49;3.70;;;1.60;;
64571;SDS011;51155;51.984;21.208;2023-01-29T06:00:22;2.70;;;1.60;;
64571;SDS011;51155;51.984;21.208;2023-01-29T06:02:54;3.00;;;1.30;;
64571;SDS011;51155;51.984;21.208;2023-01-29T06:05:26;3.40;;;1.60;;
64571;SDS011;51155;51.984;21.208;2023-01-29T06:07:58;2.70;;;1.70;;
64571;SDS011;51155;51.984;21.208;2023-01-29T06:10:29;3.00;;;1.50;;
64571;SDS011;51155;51.984;21.208;2023-01-29T06:13:02;3.10;;;1.30;;
64571;SDS011;51155;51.984;21.208;2023-01-29T06:15:33;3.30;;;1.80;;
64571;SDS011;51155;51.984;21.208;2023-01-29T06:18:05;2.40;;;1.40;;
64571;SDS011;51155;51.984;21.208;2023-01-29T06:20:38;2.60;;;1.50;;
64571;SDS011;51155;51.984;21.208;2023-01-29T06:25:42;3.10;;;1.50;;
64571;SDS011;51155;51.984;21.208;2023-01-29T06:28:14;2.50;;;1.20;;
64571;SDS011;51155;51.984;21.208;2023-01-29T06:30:46;3.30;;;1.60;;
64571;SDS011;51155;51.984;21.208;2023-01-29T06:33:18;3.40;;;1.60;;
64571;SDS011;51155;51.984;21.208;2023-01-29T06:35:58;2.60;;;1.40;;
64571;SDS011;51155;51.984;21.208;2023-01-29T06:38:31;4.10;;;1.70;;
64571;SDS011;51155;51.984;21.208;2023-01-29T06:41:10;2.50;;;1.70;;
64571;SDS011;51155;51.984;21.208;2023-01-29T06:43:43;2.60;;;1.60;;
64571;SDS011;51155;51.984;21.208;2023-01-29T06:48:47;3.00;;;1.60;;
64571;SDS011;51155;51.984;21.208;2023-01-29T06:51:19;2.80;;;1.30;;
64571;SDS011;51155;51.984;21.208;2023-01-29T06:53:53;2.30;;;1.30;;
64571;SDS011;51155;51.984;21.208;2023-01-29T06:56:26;4.30;;;1.70;;
64571;SDS011;51155;51.984;21.208;2023-01-29T06:58:58;2.60;;;1.50;;
64571;SDS011;51155;51.984;21.208;2023-01-29T07:01:30;3.30;;;1.70;;
64571;SDS011;51155;51.984;21.208;2023-01-29T07:04:07;2.70;;;1.50;;
64571;SDS011;51155;51.984;21.208;2023-01-29T07:06:39;3.50;;;1.60;;
64571;SDS011;51155;51.984;21.208;2023-01-29T07:09:11;2.90;;;1.60;;
64571;SDS011;51155;51.984;21.208;2023-01-29T07:11:46;3.00;;;1.60;;
64571;SDS011;51155;51.984;21.208;2023-01-29T07:14:18;2.90;;;1.90;;
64571;SDS011;51155;51.984;21.208;2023-01-29T07:16:50;3.90;;;1.90;;
64571;SDS011;51155;51.984;21.208;2023-01-29T07:19:22;2.50;;;1.50;;
64571;SDS011;51155;51.984;21.208;2023-01-29T07:21:54;2.50;;;1.50;;
64571;SDS011;51155;51.984;21.208;2023-01-29T07:24:26;3.70;;;2.10;;
64571;SDS011;51155;51.984;21.208;2023-01-29T07:26:58;2.90;;;1.80;;
64571;SDS011;51155;51.984;21.208;2023-01-29T07:29:30;2.60;;;1.60;;
64571;SDS011;51155;51.984;21.208;2023-01-29T07:32:02;2.60;;;1.60;;
64571;SDS011;51155;51.984;21.208;2023-01-29T07:34:34;3.80;;;2.00;;
64571;SDS011;51155;51.984;21.208;2023-01-29T07:37:06;3.40;;;1.90;;
64571;SDS011;51155;51.984;21.208;2023-01-29T07:39:38;3.90;;;1.80;;
64571;SDS011;51155;51.984;21.208;2023-01-29T07:42:10;3.10;;;1.60;;
64571;SDS011;51155;51.984;21.208;2023-01-29T07:44:43;3.50;;;1.80;;
64571;SDS011;51155;51.984;21.208;2023-01-29T07:47:15;2.70;;;1.60;;
64571;SDS011;51155;51.984;21.208;2023-01-29T07:49:47;2.40;;;1.40;;
64571;SDS011;51155;51.984;21.208;2023-01-29T07:52:19;2.70;;;1.80;;
64571;SDS011;51155;51.984;21.208;2023-01-29T07:54:53;3.80;;;2.00;;
64571;SDS011;51155;51.984;21.208;2023-01-29T07:57:25;3.00;;;1.60;;
64571;SDS011;51155;51.984;21.208;2023-01-29T07:59:56;2.90;;;1.70;;
64571;SDS011;51155;51.984;21.208;2023-01-29T08:02:28;2.60;;;1.60;;
64571;SDS011;51155;51.984;21.208;2023-01-29T08:05:00;2.80;;;1.60;;
64571;SDS011;51155;51.984;21.208;2023-01-29T08:07:32;2.10;;;1.40;;
64571;SDS011;51155;51.984;21.208;2023-01-29T08:10:04;2.80;;;1.70;;
64571;SDS011;51155;51.984;21.208;2023-01-29T08:12:36;3.60;;;1.50;;
64571;SDS011;51155;51.984;21.208;2023-01-29T08:15:09;4.70;;;2.00;;
64571;SDS011;51155;51.984;21.208;2023-01-29T08:17:41;4.20;;;1.80;;
64571;SDS011;51155;51.984;21.208;2023-01-29T08:20:28;2.50;;;1.30;;
64571;SDS011;51155;51.984;21.208;2023-01-29T08:23:02;3.40;;;2.10;;
64571;SDS011;51155;51.984;21.208;2023-01-29T08:25:35;3.70;;;2.10;;
64571;SDS011;51155;51.984;21.208;2023-01-29T08:28:07;3.30;;;1.70;;
64571;SDS011;51155;51.984;21.208;2023-01-29T08:30:39;2.90;;;1.70;;
64571;SDS011;51155;51.984;21.208;2023-01-29T08:33:11;3.40;;;1.80;;
64571;SDS011;51155;51.984;21.208;2023-01-29T08:35:48;3.60;;;2.00;;
64571;SDS011;51155;51.984;21.208;2023-01-29T08:38:20;3.90;;;1.80;;
64571;SDS011;51155;51.984;21.208;2023-01-29T08:40:52;3.30;;;1.90;;
64571;SDS011;51155;51.984;21.208;2023-01-29T08:43:24;3.00;;;1.80;;
64571;SDS011;51155;51.984;21.208;2023-01-29T08:45:56;3.00;;;1.60;;
64571;SDS011;51155;51.984;21.208;2023-01-29T08:48:28;3.60;;;1.70;;
64571;SDS011;51155;51.984;21.208;2023-01-29T08:51:01;3.00;;;1.90;;
64571;SDS011;51155;51.984;21.208;2023-01-29T08:53:33;2.30;;;1.70;;
64571;SDS011;51155;51.984;21.208;2023-01-29T08:56:06;2.30;;;1.70;;
64571;SDS011;51155;51.984;21.208;2023-01-29T08:58:38;2.70;;;1.80;;
64571;SDS011;51155;51.984;21.208;2023-01-29T09:01:11;3.00;;;1.80;;
64571;SDS011;51155;51.984;21.208;2023-01-29T09:03:44;3.40;;;1.80;;
64571;SDS011;51155;51.984;21.208;2023-01-29T09:06:16;2.90;;;1.60;;
64571;SDS011;51155;51.984;21.208;2023-01-29T09:08:48;2.60;;;1.60;;
64571;SDS011;51155;51.984;21.208;2023-01-29T09:11:20;3.00;;;2.00;;
64571;SDS011;51155;51.984;21.208;2023-01-29T09:13:52;3.70;;;1.90;;
64571;SDS011;51155;51.984;21.208;2023-01-29T09:16:24;3.30;;;1.80;;
64571;SDS011;51155;51.984;21.208;2023-01-29T09:18:56;2.90;;;1.80;;
64571;SDS011;51155;51.984;21.208;2023-01-29T09:21:28;3.40;;;1.70;;
64571;SDS011;51155;51.984;21.208;2023-01-29T09:24:00;3.40;;;1.80;;
64571;SDS011;51155;51.984;21.208;2023-01-29T09:26:32;4.40;;;2.20;;
64571;SDS011;51155;51.984;21.208;2023-01-29T09:29:04;3.50;;;1.70;;
64571;SDS011;51155;51.984;21.208;2023-01-29T09:31:36;3.40;;;2.20;;
64571;SDS011;51155;51.984;21.208;2023-01-29T09:34:09;4.20;;;2.20;;
64571;SDS011;51155;51.984;21.208;2023-01-29T09:36:41;3.50;;;2.00;;
64571;SDS011;51155;51.984;21.208;2023-01-29T09:39:13;4.30;;;1.80;;
64571;SDS011;51155;51.984;21.208;2023-01-29T09:47:10;4.00;;;2.30;;
64571;SDS011;51155;51.984;21.208;2023-01-29T09:49:47;4.10;;;2.20;;
64571;SDS011;51155;51.984;21.208;2023-01-29T09:55:25;4.20;;;2.40;;
64571;SDS011;51155;51.984;21.208;2023-01-29T10:00:53;4.60;;;2.50;;
64571;SDS011;51155;51.984;21.208;2023-01-29T10:06:31;4.10;;;2.60;;
64571;SDS011;51155;51.984;21.208;2023-01-29T10:09:15;5.10;;;2.50;;
64571;SDS011;51155;51.984;21.208;2023-01-29T10:12:04;3.70;;;2.30;;
64571;SDS011;51155;51.984;21.208;2023-01-29T10:23:22;4.50;;;2.60;;
64571;SDS011;51155;51.984;21.208;2023-01-29T10:25:55;4.20;;;2.50;;
64571;SDS011;51155;51.984;21.208;2023-01-29T10:31:04;4.60;;;2.60;;
64571;SDS011;51155;51.984;21.208;2023-01-29T10:33:44;3.80;;;2.60;;
64571;SDS011;51155;51.984;21.208;2023-01-29T10:39:17;4.00;;;2.60;;
64571;SDS011;51155;51.984;21.208;2023-01-29T10:56:00;5.30;;;2.50;;
64571;SDS011;51155;51.984;21.208;2023-01-29T10:58:58;4.90;;;2.70;;
64571;SDS011;51155;51.984;21.208;2023-01-29T11:01:31;4.20;;;2.40;;
64571;SDS011;51155;51.984;21.208;2023-01-29T11:04:05;4.70;;;2.50;;
64571;SDS011;51155;51.984;21.208;2023-01-29T11:06:37;5.10;;;2.80;;
64571;SDS011;51155;51.984;21.208;2023-01-29T11:12:04;4.70;;;2.30;;
64571;SDS011;51155;51.984;21.208;2023-01-29T11:17:18;3.90;;;2.60;;
64571;SDS011;51155;51.984;21.208;2023-01-29T11:19:51;4.70;;;2.80;;
64571;SDS011;51155;51.984;21.208;2023-01-29T11:22:27;4.70;;;2.40;;
64571;SDS011;51155;51.984;21.208;2023-01-29T11:25:14;4.10;;;2.60;;
64571;SDS011;51155;51.984;21.208;2023-01-29T11:27:55;4.40;;;2.70;;
64571;SDS011;51155;51.984;21.208;2023-01-29T11:33:08;5.10;;;2.30;;
64571;SDS011;51155;51.984;21.208;2023-01-29T11:35:41;3.20;;;2.20;;
64571;SDS011;51155;51.984;21.208;2023-01-29T11:40:49;4.70;;;2.60;;
64571;SDS011;51155;51.984;21.208;2023-01-29T11:43:29;4.60;;;2.60;;
64571;SDS011;51155;51.984;21.208;2023-01-29T11:46:06;3.80;;;2.30;;
64571;SDS011;51155;51.984;21.208;2023-01-29T11:48:49;4.70;;;2.60;;
64571;SDS011;51155;51.984;21.208;2023-01-29T11:54:10;4.20;;;2.30;;
64571;SDS011;51155;51.984;21.208;2023-01-29T11:56:45;4.00;;;2.40;;
64571;SDS011;51155;51.984;21.208;2023-01-29T12:05:25;4.20;;;2.30;;
64571;SDS011;51155;51.984;21.208;2023-01-29T12:07:57;3.90;;;2.40;;
64571;SDS011;51155;51.984;21.208;2023-01-29T12:10:36;4.60;;;2.40;;
64571;SDS011;51155;51.984;21.208;2023-01-29T12:15:46;4.30;;;2.30;;
64571;SDS011;51155;51.984;21.208;2023-01-29T12:18:35;5.20;;;2.80;;
64571;SDS011;51155;51.984;21.208;2023-01-29T12:21:27;4.40;;;2.30;;
64571;SDS011;51155;51.984;21.208;2023-01-29T12:24:48;5.40;;;2.60;;
64571;SDS011;51155;51.984;21.208;2023-01-29T12:26:56;4.90;;;2.20;;
64571;SDS011;51155;51.984;21.208;2023-01-29T12:40:26;3.90;;;2.20;;
64571;SDS011;51155;51.984;21.208;2023-01-29T12:43:03;4.50;;;2.10;;
64571;SDS011;51155;51.984;21.208;2023-01-29T12:45:36;5.80;;;2.60;;
64571;SDS011;51155;51.984;21.208;2023-01-29T12:48:11;4.10;;;2.30;;
64571;SDS011;51155;51.984;21.208;2023-01-29T12:50:44;3.80;;;2.30;;
64571;SDS011;51155;51.984;21.208;2023-01-29T12:53:48;4.10;;;2.40;;
64571;SDS011;51155;51.984;21.208;2023-01-29T12:59:00;3.60;;;2.20;;
64571;SDS011;51155;51.984;21.208;2023-01-29T13:01:37;3.80;;;2.20;;
64571;SDS011;51155;51.984;21.208;2023-01-29T13:06:55;3.60;;;2.10;;
64571;SDS011;51155;51.984;21.208;2023-01-29T13:09:30;3.60;;;2.20;;
64571;SDS011;51155;51.984;21.208;2023-01-29T13:12:11;3.00;;;2.00;;
64571;SDS011;51155;51.984;21.208;2023-01-29T13:14:55;3.90;;;2.00;;
64571;SDS011;51155;51.984;21.208;2023-01-29T13:20:23;4.40;;;1.90;;
64571;SDS011;51155;51.984;21.208;2023-01-29T13:22:58;4.20;;;2.20;;
64571;SDS011;51155;51.984;21.208;2023-01-29T13:25:34;3.40;;;2.10;;
64571;SDS011;51155;51.984;21.208;2023-01-29T13:28:17;3.50;;;2.20;;
64571;SDS011;51155;51.984;21.208;2023-01-29T13:33:41;4.50;;;2.60;;
64571;SDS011;51155;51.984;21.208;2023-01-29T13:36:16;3.90;;;2.30;;
64571;SDS011;51155;51.984;21.208;2023-01-29T13:41:36;4.00;;;2.60;;
64571;SDS011;51155;51.984;21.208;2023-01-29T13:44:38;3.70;;;2.00;;
64571;SDS011;51155;51.984;21.208;2023-01-29T13:47:30;3.30;;;2.50;;
64571;SDS011;51155;51.984;21.208;2023-01-29T13:50:20;5.10;;;2.40;;
64571;SDS011;51155;51.984;21.208;2023-01-29T13:52:56;3.10;;;2.30;;
64571;SDS011;51155;51.984;21.208;2023-01-29T13:55:34;3.70;;;2.00;;
64571;SDS011;51155;51.984;21.208;2023-01-29T14:01:04;3.90;;;2.40;;
64571;SDS011;51155;51.984;21.208;2023-01-29T14:03:43;4.30;;;2.30;;
64571;SDS011;51155;51.984;21.208;2023-01-29T14:06:41;3.30;;;2.10;;
64571;SDS011;51155;51.984;21.208;2023-01-29T14:17:27;5.10;;;2.40;;
64571;SDS011;51155;51.984;21.208;2023-01-29T14:20:18;4.30;;;2.10;;
64571;SDS011;51155;51.984;21.208;2023-01-29T14:22:56;4.50;;;2.50;;
64571;SDS011;51155;51.984;21.208;2023-01-29T14:25:32;4.00;;;2.40;;
64571;SDS011;51155;51.984;21.208;2023-01-29T14:28:13;4.40;;;2.30;;
64571;SDS011;51155;51.984;21.208;2023-01-29T14:30:46;4.30;;;2.20;;
64571;SDS011;51155;51.984;21.208;2023-01-29T14:33:46;4.10;;;2.30;;
64571;SDS011;51155;51.984;21.208;2023-01-29T14:36:17;4.80;;;2.80;;
64571;SDS011;51155;51.984;21.208;2023-01-29T14:38:49;4.00;;;2.30;;
64571;SDS011;51155;51.984;21.208;2023-01-29T14:41:27;4.40;;;2.50;;
64571;SDS011;51155;51.984;21.208;2023-01-29T14:50:02;4.00;;;2.30;;
64571;SDS011;51155;51.984;21.208;2023-01-29T14:53:17;4.30;;;2.40;;
64571;SDS011;51155;51.984;21.208;2023-01-29T14:55:55;5.70;;;2.50;;
64571;SDS011;51155;51.984;21.208;2023-01-29T15:01:22;5.70;;;2.60;;
64571;SDS011;51155;51.984;21.208;2023-01-29T15:04:04;3.70;;;2.40;;
64571;SDS011;51155;51.984;21.208;2023-01-29T15:06:46;4.40;;;2.50;;
64571;SDS011;51155;51.984;21.208;2023-01-29T15:18:27;5.20;;;2.50;;
64571;SDS011;51155;51.984;21.208;2023-01-29T15:21:03;6.00;;;2.90;;
64571;SDS011;51155;51.984;21.208;2023-01-29T15:23:36;5.70;;;2.90;;
64571;SDS011;51155;51.984;21.208;2023-01-29T15:26:10;4.70;;;2.90;;
64571;SDS011;51155;51.984;21.208;2023-01-29T15:28:53;4.30;;;2.70;;
64571;SDS011;51155;51.984;21.208;2023-01-29T15:31:34;5.80;;;2.90;;
64571;SDS011;51155;51.984;21.208;2023-01-29T15:34:06;4.70;;;2.60;;
64571;SDS011;51155;51.984;21.208;2023-01-29T15:36:38;4.30;;;2.30;;
64571;SDS011;51155;51.984;21.208;2023-01-29T15:41:43;5.30;;;2.40;;
64571;SDS011;51155;51.984;21.208;2023-01-29T15:44:19;4.00;;;2.50;;
64571;SDS011;51155;51.984;21.208;2023-01-29T15:46:58;4.20;;;2.70;;
64571;SDS011;51155;51.984;21.208;2023-01-29T15:49:33;5.00;;;2.40;;
64571;SDS011;51155;51.984;21.208;2023-01-29T15:52:12;5.20;;;2.80;;
64571;SDS011;51155;51.984;21.208;2023-01-29T15:54:46;4.80;;;2.40;;
64571;SDS011;51155;51.984;21.208;2023-01-29T15:57:24;5.70;;;2.70;;
64571;SDS011;51155;51.984;21.208;2023-01-29T15:59:59;7.00;;;3.20;;
64571;SDS011;51155;51.984;21.208;2023-01-29T16:02:35;6.20;;;3.10;;
64571;SDS011;51155;51.984;21.208;2023-01-29T16:05:20;4.90;;;3.10;;
64571;SDS011;51155;51.984;21.208;2023-01-29T16:07:54;5.10;;;2.40;;
64571;SDS011;51155;51.984;21.208;2023-01-29T16:12:59;5.10;;;3.10;;
64571;SDS011;51155;51.984;21.208;2023-01-29T16:15:33;5.50;;;3.30;;
64571;SDS011;51155;51.984;21.208;2023-01-29T16:18:32;4.70;;;2.80;;
64571;SDS011;51155;51.984;21.208;2023-01-29T16:21:09;4.30;;;2.80;;
64571;SDS011;51155;51.984;21.208;2023-01-29T16:23:48;5.10;;;3.10;;
64571;SDS011;51155;51.984;21.208;2023-01-29T16:26:24;6.40;;;3.30;;
64571;SDS011;51155;51.984;21.208;2023-01-29T16:29:03;6.60;;;3.20;;
64571;SDS011;51155;51.984;21.208;2023-01-29T16:31:37;5.40;;;3.00;;
64571;SDS011;51155;51.984;21.208;2023-01-29T16:36:47;4.50;;;2.70;;
64571;SDS011;51155;51.984;21.208;2023-01-29T16:39:31;5.40;;;2.90;;
64571;SDS011;51155;51.984;21.208;2023-01-29T16:44:59;5.90;;;3.90;;
64571;SDS011;51155;51.984;21.208;2023-01-29T16:47:36;5.80;;;3.10;;
64571;SDS011;51155;51.984;21.208;2023-01-29T16:50:33;4.30;;;2.50;;
64571;SDS011;51155;51.984;21.208;2023-01-29T16:53:18;3.50;;;2.40;;
64571;SDS011;51155;51.984;21.208;2023-01-29T16:55:52;5.80;;;2.90;;
64571;SDS011;51155;51.984;21.208;2023-01-29T16:58:24;5.00;;;2.90;;
64571;SDS011;51155;51.984;21.208;2023-01-29T17:01:09;5.00;;;3.10;;
64571;SDS011;51155;51.984;21.208;2023-01-29T17:06:22;5.40;;;2.80;;
64571;SDS011;51155;51.984;21.208;2023-01-29T17:08:54;5.90;;;3.00;;
64571;SDS011;51155;51.984;21.208;2023-01-29T17:14:01;5.30;;;3.40;;
64571;SDS011;51155;51.984;21.208;2023-01-29T17:16:36;6.20;;;3.40;;
64571;SDS011;51155;51.984;21.208;2023-01-29T17:19:18;5.70;;;2.80;;
64571;SDS011;51155;51.984;21.208;2023-01-29T17:21:51;4.90;;;2.90;;
64571;SDS011;51155;51.984;21.208;2023-01-29T17:24:24;5.10;;;3.00;;
64571;SDS011;51155;51.984;21.208;2023-01-29T17:26:57;4.90;;;2.70;;
64571;SDS011;51155;51.984;21.208;2023-01-29T17:29:30;4.90;;;2.80;;
64571;SDS011;51155;51.984;21.208;2023-01-29T17:32:02;5.00;;;2.80;;
64571;SDS011;51155;51.984;21.208;2023-01-29T17:34:34;4.10;;;2.90;;
64571;SDS011;51155;51.984;21.208;2023-01-29T17:37:11;4.80;;;3.30;;
64571;SDS011;51155;51.984;21.208;2023-01-29T17:39:43;4.40;;;2.90;;
64571;SDS011;51155;51.984;21.208;2023-01-29T17:42:17;5.20;;;2.90;;
64571;SDS011;51155;51.984;21.208;2023-01-29T17:44:49;6.30;;;3.40;;
64571;SDS011;51155;51.984;21.208;2023-01-29T17:47:21;4.60;;;3.10;;
64571;SDS011;51155;51.984;21.208;2023-01-29T17:49:53;4.70;;;3.20;;
64571;SDS011;51155;51.984;21.208;2023-01-29T17:52:25;4.80;;;2.80;;
64571;SDS011;51155;51.984;21.208;2023-01-29T17:54:57;5.90;;;3.20;;
64571;SDS011;51155;51.984;21.208;2023-01-29T17:57:29;5.30;;;3.20;;
64571;SDS011;51155;51.984;21.208;2023-01-29T18:00:15;6.10;;;3.30;;
64571;SDS011;51155;51.984;21.208;2023-01-29T18:02:48;6.30;;;3.60;;
64571;SDS011;51155;51.984;21.208;2023-01-29T18:05:20;4.90;;;2.90;;
64571;SDS011;51155;51.984;21.208;2023-01-29T18:07:52;5.10;;;3.20;;
64571;SDS011;51155;51.984;21.208;2023-01-29T18:10:25;5.80;;;3.60;;
64571;SDS011;51155;51.984;21.208;2023-01-29T18:12:57;5.60;;;3.60;;
64571;SDS011;51155;51.984;21.208;2023-01-29T18:15:29;4.70;;;3.00;;
64571;SDS011;51155;51.984;21.208;2023-01-29T18:18:01;6.00;;;3.30;;
64571;SDS011;51155;51.984;21.208;2023-01-29T18:20:33;6.70;;;4.00;;
64571;SDS011;51155;51.984;21.208;2023-01-29T18:23:09;5.60;;;3.40;;
64571;SDS011;51155;51.984;21.208;2023-01-29T18:25:41;5.20;;;3.20;;
64571;SDS011;51155;51.984;21.208;2023-01-29T18:30:50;5.00;;;2.90;;
64571;SDS011;51155;51.984;21.208;2023-01-29T18:33:22;5.60;;;3.30;;
64571;SDS011;51155;51.984;21.208;2023-01-29T18:35:55;4.10;;;3.20;;